sensor_id;sensor_type;location;lat;lon;timestamp;pressure;altitude;pressure_sealevel;temperature;humidity
57801;BME280;43627;42.728;23.256;2022-11-20T00:01:14;94281.81;;;17.80;75.33
57801;BME280;43627;42.728;23.256;2022-11-20T00:03:41;94296.13;;;17.78;75.83
57801;BME280;43627;42.728;23.256;2022-11-20T00:06:11;94272.44;;;17.69;76.41
57801;BME280;43627;42.728;23.256;2022-11-20T00:08:39;94303.00;;;17.72;76.58
57801;BME280;43627;42.728;23.256;2022-11-20T00:11:07;94249.38;;;17.73;74.54
57801;BME280;43627;42.728;23.256;2022-11-20T00:13:41;94244.50;;;17.60;74.34
57801;BME280;43627;42.728;23.256;2022-11-20T00:16:10;94257.34;;;17.89;74.25
57801;BME280;43627;42.728;23.256;2022-11-20T00:18:38;94257.88;;;17.88;74.06
57801;BME280;43627;42.728;23.256;2022-11-20T00:21:07;94278.66;;;17.89;74.46
57801;BME280;43627;42.728;23.256;2022-11-20T00:23:34;94272.41;;;17.88;75.38
57801;BME280;43627;42.728;23.256;2022-11-20T00:26:03;94246.28;;;17.76;73.66
57801;BME280;43627;42.728;23.256;2022-11-20T00:28:30;94264.72;;;17.81;73.31
57801;BME280;43627;42.728;23.256;2022-11-20T00:31:12;94271.78;;;17.95;72.89
57801;BME280;43627;42.728;23.256;2022-11-20T00:33:39;94246.06;;;17.74;73.23
57801;BME280;43627;42.728;23.256;2022-11-20T00:36:21;94283.53;;;17.83;74.66
57801;BME280;43627;42.728;23.256;2022-11-20T00:38:55;94261.63;;;17.72;73.91
57801;BME280;43627;42.728;23.256;2022-11-20T00:41:23;94266.47;;;17.84;73.90
57801;BME280;43627;42.728;23.256;2022-11-20T00:43:55;94276.97;;;17.86;74.32
57801;BME280;43627;42.728;23.256;2022-11-20T00:46:24;94272.09;;;17.92;72.50
57801;BME280;43627;42.728;23.256;2022-11-20T00:48:51;94270.78;;;17.80;74.67
57801;BME280;43627;42.728;23.256;2022-11-20T00:51:21;94266.00;;;17.80;75.46
57801;BME280;43627;42.728;23.256;2022-11-20T00:53:48;94267.00;;;17.83;76.62
57801;BME280;43627;42.728;23.256;2022-11-20T00:56:17;94251.28;;;17.78;76.62
57801;BME280;43627;42.728;23.256;2022-11-20T00:58:46;94252.97;;;17.81;77.04
57801;BME280;43627;42.728;23.256;2022-11-20T01:01:19;94247.97;;;17.79;78.01
57801;BME280;43627;42.728;23.256;2022-11-20T01:03:48;94253.75;;;17.62;79.67
57801;BME280;43627;42.728;23.256;2022-11-20T01:06:28;94234.66;;;17.64;79.16
57801;BME280;43627;42.728;23.256;2022-11-20T01:08:57;94209.84;;;17.32;78.35
57801;BME280;43627;42.728;23.256;2022-11-20T01:11:32;94242.81;;;17.57;80.75
57801;BME280;43627;42.728;23.256;2022-11-20T01:14:00;94233.34;;;17.52;80.97
57801;BME280;43627;42.728;23.256;2022-11-20T01:16:29;94230.81;;;17.54;82.16
57801;BME280;43627;42.728;23.256;2022-11-20T01:18:59;94245.88;;;17.53;81.92
57801;BME280;43627;42.728;23.256;2022-11-20T01:21:28;94232.31;;;17.55;81.75
57801;BME280;43627;42.728;23.256;2022-11-20T01:23:56;94227.47;;;17.42;81.03
57801;BME280;43627;42.728;23.256;2022-11-20T01:26:25;94234.63;;;17.51;82.31
57801;BME280;43627;42.728;23.256;2022-11-20T01:28:53;94184.66;;;17.09;80.28
57801;BME280;43627;42.728;23.256;2022-11-20T01:31:23;94244.38;;;17.52;81.71
57801;BME280;43627;42.728;23.256;2022-11-20T01:33:53;94196.78;;;17.20;80.46
57801;BME280;43627;42.728;23.256;2022-11-20T01:36:22;94234.53;;;17.25;81.55
57801;BME280;43627;42.728;23.256;2022-11-20T01:38:57;94219.13;;;17.48;76.04
57801;BME280;43627;42.728;23.256;2022-11-20T01:41:26;94233.94;;;17.64;76.33
57801;BME280;43627;42.728;23.256;2022-11-20T01:44:14;94212.53;;;17.38;77.10
57801;BME280;43627;42.728;23.256;2022-11-20T01:46:57;94240.25;;;17.59;76.70
57801;BME280;43627;42.728;23.256;2022-11-20T01:49:50;94239.53;;;17.58;76.32
57801;BME280;43627;42.728;23.256;2022-11-20T01:52:24;94241.84;;;17.54;76.02
57801;BME280;43627;42.728;23.256;2022-11-20T01:55:00;94221.22;;;17.42;75.30
57801;BME280;43627;42.728;23.256;2022-11-20T01:57:29;94242.94;;;17.64;74.92
57801;BME280;43627;42.728;23.256;2022-11-20T02:00:07;94227.06;;;17.70;74.89
57801;BME280;43627;42.728;23.256;2022-11-20T02:02:36;94212.09;;;17.66;74.23
57801;BME280;43627;42.728;23.256;2022-11-20T02:05:12;94232.66;;;17.65;74.43
57801;BME280;43627;42.728;23.256;2022-11-20T02:07:42;94229.56;;;17.55;74.91
57801;BME280;43627;42.728;23.256;2022-11-20T02:10:09;94240.59;;;17.55;74.59
57801;BME280;43627;42.728;23.256;2022-11-20T02:12:36;94215.84;;;17.50;73.87
57801;BME280;43627;42.728;23.256;2022-11-20T02:15:22;94235.09;;;17.68;74.24
57801;BME280;43627;42.728;23.256;2022-11-20T02:17:55;94212.88;;;17.48;74.07
57801;BME280;43627;42.728;23.256;2022-11-20T02:20:22;94242.19;;;17.64;74.23
57801;BME280;43627;42.728;23.256;2022-11-20T02:23:05;94210.44;;;17.44;74.33
57801;BME280;43627;42.728;23.256;2022-11-20T02:25:35;94251.28;;;17.59;75.54
57801;BME280;43627;42.728;23.256;2022-11-20T02:28:03;94233.00;;;17.42;76.53
57801;BME280;43627;42.728;23.256;2022-11-20T02:30:31;94240.31;;;17.40;76.70
57801;BME280;43627;42.728;23.256;2022-11-20T02:32:58;94211.66;;;17.30;75.61
57801;BME280;43627;42.728;23.256;2022-11-20T02:37:54;94223.03;;;17.39;75.93
57801;BME280;43627;42.728;23.256;2022-11-20T02:40:21;94198.38;;;17.15;75.99
57801;BME280;43627;42.728;23.256;2022-11-20T02:42:54;94259.56;;;17.59;76.18
57801;BME280;43627;42.728;23.256;2022-11-20T02:45:22;94260.41;;;17.54;75.55
57801;BME280;43627;42.728;23.256;2022-11-20T02:47:49;94253.91;;;17.51;76.18
57801;BME280;43627;42.728;23.256;2022-11-20T02:50:16;94254.03;;;17.59;76.03
57801;BME280;43627;42.728;23.256;2022-11-20T02:52:43;94268.56;;;17.59;76.67
57801;BME280;43627;42.728;23.256;2022-11-20T02:55:10;94253.56;;;17.41;77.53
57801;BME280;43627;42.728;23.256;2022-11-20T02:57:36;94279.34;;;17.44;79.03
57801;BME280;43627;42.728;23.256;2022-11-20T03:00:04;94265.19;;;17.34;80.84
57801;BME280;43627;42.728;23.256;2022-11-20T03:02:32;94246.28;;;17.25;81.47
57801;BME280;43627;42.728;23.256;2022-11-20T03:04:59;94277.09;;;17.24;83.63
57801;BME280;43627;42.728;23.256;2022-11-20T03:07:26;94281.75;;;17.16;84.38
57801;BME280;43627;42.728;23.256;2022-11-20T03:09:52;94274.97;;;17.17;84.20
57801;BME280;43627;42.728;23.256;2022-11-20T03:12:19;94277.72;;;17.17;84.61
57801;BME280;43627;42.728;23.256;2022-11-20T03:14:46;94268.84;;;17.05;84.33
57801;BME280;43627;42.728;23.256;2022-11-20T03:17:18;94287.31;;;17.29;84.10
57801;BME280;43627;42.728;23.256;2022-11-20T03:19:45;94276.72;;;17.14;84.59
57801;BME280;43627;42.728;23.256;2022-11-20T03:22:11;94288.75;;;17.17;85.93
57801;BME280;43627;42.728;23.256;2022-11-20T03:24:38;94283.75;;;17.15;86.79
57801;BME280;43627;42.728;23.256;2022-11-20T03:27:05;94271.31;;;16.90;88.59
57801;BME280;43627;42.728;23.256;2022-11-20T03:29:32;94296.00;;;16.95;89.93
57801;BME280;43627;42.728;23.256;2022-11-20T03:32:00;94259.53;;;16.70;89.81
57801;BME280;43627;42.728;23.256;2022-11-20T03:34:27;94315.53;;;16.97;89.55
57801;BME280;43627;42.728;23.256;2022-11-20T03:36:53;94297.28;;;16.94;88.67
57801;BME280;43627;42.728;23.256;2022-11-20T03:39:20;94275.16;;;16.81;87.01
57801;BME280;43627;42.728;23.256;2022-11-20T03:41:47;94300.75;;;16.95;86.84
57801;BME280;43627;42.728;23.256;2022-11-20T03:44:14;94316.28;;;16.98;87.72
57801;BME280;43627;42.728;23.256;2022-11-20T03:46:40;94322.00;;;17.00;87.58
57801;BME280;43627;42.728;23.256;2022-11-20T03:49:07;94332.78;;;16.98;87.56
57801;BME280;43627;42.728;23.256;2022-11-20T03:51:35;94302.78;;;16.94;87.15
57801;BME280;43627;42.728;23.256;2022-11-20T03:54:06;94336.16;;;17.09;86.26
57801;BME280;43627;42.728;23.256;2022-11-20T03:56:35;94308.28;;;16.94;86.49
57801;BME280;43627;42.728;23.256;2022-11-20T03:59:03;94329.78;;;16.96;86.38
57801;BME280;43627;42.728;23.256;2022-11-20T04:01:32;94320.78;;;16.95;86.59
57801;BME280;43627;42.728;23.256;2022-11-20T04:03:59;94338.00;;;17.01;87.22
57801;BME280;43627;42.728;23.256;2022-11-20T04:06:29;94342.94;;;17.08;86.75
57801;BME280;43627;42.728;23.256;2022-11-20T04:08:57;94321.63;;;16.90;85.90
57801;BME280;43627;42.728;23.256;2022-11-20T04:11:27;94309.56;;;16.93;86.10
57801;BME280;43627;42.728;23.256;2022-11-20T04:13:59;94331.53;;;16.99;86.56
57801;BME280;43627;42.728;23.256;2022-11-20T04:16:28;94309.94;;;17.03;86.72
57801;BME280;43627;42.728;23.256;2022-11-20T04:18:57;94297.50;;;16.96;86.34
57801;BME280;43627;42.728;23.256;2022-11-20T04:21:25;94296.97;;;16.79;87.14
57801;BME280;43627;42.728;23.256;2022-11-20T04:23:52;94278.31;;;16.66;87.65
57801;BME280;43627;42.728;23.256;2022-11-20T04:26:20;94310.38;;;16.88;86.60
57801;BME280;43627;42.728;23.256;2022-11-20T04:28:47;94315.81;;;16.94;86.15
57801;BME280;43627;42.728;23.256;2022-11-20T04:31:22;94310.59;;;16.90;86.20
57801;BME280;43627;42.728;23.256;2022-11-20T04:33:49;94307.53;;;16.94;85.34
57801;BME280;43627;42.728;23.256;2022-11-20T04:36:21;94314.31;;;16.93;86.70
57801;BME280;43627;42.728;23.256;2022-11-20T04:38:51;94326.66;;;16.86;86.11
57801;BME280;43627;42.728;23.256;2022-11-20T04:41:24;94304.34;;;16.65;88.43
57801;BME280;43627;42.728;23.256;2022-11-20T04:43:53;94321.28;;;16.75;88.02
57801;BME280;43627;42.728;23.256;2022-11-20T04:46:27;94314.59;;;16.70;89.70
57801;BME280;43627;42.728;23.256;2022-11-20T04:48:53;94305.59;;;16.64;89.93
57801;BME280;43627;42.728;23.256;2022-11-20T04:51:20;94308.59;;;16.66;90.54
57801;BME280;43627;42.728;23.256;2022-11-20T04:53:47;94289.06;;;16.70;89.80
57801;BME280;43627;42.728;23.256;2022-11-20T04:56:14;94285.94;;;16.54;90.10
57801;BME280;43627;42.728;23.256;2022-11-20T04:58:44;94285.38;;;16.62;90.61
57801;BME280;43627;42.728;23.256;2022-11-20T05:01:17;94285.66;;;16.58;89.74
57801;BME280;43627;42.728;23.256;2022-11-20T05:03:44;94285.38;;;16.62;91.70
57801;BME280;43627;42.728;23.256;2022-11-20T05:06:13;94281.88;;;16.61;92.60
57801;BME280;43627;42.728;23.256;2022-11-20T05:08:40;94282.84;;;16.64;92.26
57801;BME280;43627;42.728;23.256;2022-11-20T05:11:15;94280.09;;;16.64;92.21
57801;BME280;43627;42.728;23.256;2022-11-20T05:13:42;94258.59;;;16.62;91.77
57801;BME280;43627;42.728;23.256;2022-11-20T05:16:15;94280.56;;;16.68;91.72
57801;BME280;43627;42.728;23.256;2022-11-20T05:18:42;94269.88;;;16.40;93.53
57801;BME280;43627;42.728;23.256;2022-11-20T05:21:11;94272.09;;;16.41;94.02
57801;BME280;43627;42.728;23.256;2022-11-20T05:23:39;94289.91;;;16.59;93.00
57801;BME280;43627;42.728;23.256;2022-11-20T05:26:08;94305.97;;;16.55;92.83
57801;BME280;43627;42.728;23.256;2022-11-20T05:28:34;94283.50;;;16.51;93.62
57801;BME280;43627;42.728;23.256;2022-11-20T05:31:12;94291.31;;;16.66;91.67
57801;BME280;43627;42.728;23.256;2022-11-20T05:33:41;94296.44;;;16.56;93.72
57801;BME280;43627;42.728;23.256;2022-11-20T05:36:09;94300.97;;;16.53;95.55
57801;BME280;43627;42.728;23.256;2022-11-20T05:38:36;94295.81;;;16.44;96.76
57801;BME280;43627;42.728;23.256;2022-11-20T05:41:07;94295.13;;;16.38;97.99
57801;BME280;43627;42.728;23.256;2022-11-20T05:43:34;94325.03;;;16.47;97.32
57801;BME280;43627;42.728;23.256;2022-11-20T05:46:03;94317.44;;;16.59;96.64
57801;BME280;43627;42.728;23.256;2022-11-20T05:48:30;94300.00;;;16.51;96.19
57801;BME280;43627;42.728;23.256;2022-11-20T05:50:59;94312.81;;;16.67;94.78
57801;BME280;43627;42.728;23.256;2022-11-20T05:53:26;94295.69;;;16.55;95.73
57801;BME280;43627;42.728;23.256;2022-11-20T05:55:58;94309.00;;;16.51;95.42
57801;BME280;43627;42.728;23.256;2022-11-20T05:58:25;94305.38;;;16.62;94.40
57801;BME280;43627;42.728;23.256;2022-11-20T06:00:52;94318.59;;;16.69;93.56
57801;BME280;43627;42.728;23.256;2022-11-20T06:03:20;94305.22;;;16.54;92.86
57801;BME280;43627;42.728;23.256;2022-11-20T06:05:47;94318.09;;;16.71;93.20
57801;BME280;43627;42.728;23.256;2022-11-20T06:08:14;94319.03;;;16.49;94.95
57801;BME280;43627;42.728;23.256;2022-11-20T06:10:41;94325.28;;;16.49;94.27
57801;BME280;43627;42.728;23.256;2022-11-20T06:13:07;94310.50;;;16.52;93.29
57801;BME280;43627;42.728;23.256;2022-11-20T06:15:34;94305.50;;;16.51;92.53
57801;BME280;43627;42.728;23.256;2022-11-20T06:18:01;94305.09;;;16.66;91.81
57801;BME280;43627;42.728;23.256;2022-11-20T06:20:28;94274.09;;;16.41;90.11
57801;BME280;43627;42.728;23.256;2022-11-20T06:22:55;94258.16;;;16.34;89.78
57801;BME280;43627;42.728;23.256;2022-11-20T06:25:21;94283.06;;;16.66;86.24
57801;BME280;43627;42.728;23.256;2022-11-20T06:27:48;94310.75;;;16.98;84.98
57801;BME280;43627;42.728;23.256;2022-11-20T06:30:15;94327.94;;;17.04;84.25
57801;BME280;43627;42.728;23.256;2022-11-20T06:32:42;94310.59;;;16.90;85.41
57801;BME280;43627;42.728;23.256;2022-11-20T06:35:09;94276.50;;;16.74;85.32
57801;BME280;43627;42.728;23.256;2022-11-20T06:37:36;94275.47;;;16.77;85.76
57801;BME280;43627;42.728;23.256;2022-11-20T06:40:04;94261.84;;;16.85;81.96
57801;BME280;43627;42.728;23.256;2022-11-20T06:42:32;94316.28;;;17.17;82.16
57801;BME280;43627;42.728;23.256;2022-11-20T06:44:59;94337.94;;;17.07;84.27
57801;BME280;43627;42.728;23.256;2022-11-20T06:47:25;94283.94;;;16.79;84.30
57801;BME280;43627;42.728;23.256;2022-11-20T06:49:52;94323.44;;;17.06;82.44
57801;BME280;43627;42.728;23.256;2022-11-20T06:52:19;94339.44;;;17.27;82.88
57801;BME280;43627;42.728;23.256;2022-11-20T06:54:46;94320.06;;;17.13;82.12
57801;BME280;43627;42.728;23.256;2022-11-20T06:57:12;94323.56;;;17.33;82.37
57801;BME280;43627;42.728;23.256;2022-11-20T06:59:39;94310.78;;;17.17;83.20
57801;BME280;43627;42.728;23.256;2022-11-20T07:02:10;94313.97;;;17.21;83.44
57801;BME280;43627;42.728;23.256;2022-11-20T07:04:38;94320.81;;;17.14;83.13
57801;BME280;43627;42.728;23.256;2022-11-20T07:07:05;94344.72;;;17.06;82.76
57801;BME280;43627;42.728;23.256;2022-11-20T07:09:35;94331.81;;;17.14;84.51
57801;BME280;43627;42.728;23.256;2022-11-20T07:12:02;94336.81;;;16.97;85.22
57801;BME280;43627;42.728;23.256;2022-11-20T07:14:28;94366.78;;;17.25;82.28
57801;BME280;43627;42.728;23.256;2022-11-20T07:16:55;94344.94;;;17.08;80.70
57801;BME280;43627;42.728;23.256;2022-11-20T07:19:22;94354.38;;;17.12;80.33
57801;BME280;43627;42.728;23.256;2022-11-20T07:21:49;94368.84;;;17.19;82.31
57801;BME280;43627;42.728;23.256;2022-11-20T07:24:16;94366.00;;;17.24;84.48
57801;BME280;43627;42.728;23.256;2022-11-20T07:26:46;94346.03;;;16.99;88.95
57801;BME280;43627;42.728;23.256;2022-11-20T07:29:14;94369.19;;;17.09;88.93
57801;BME280;43627;42.728;23.256;2022-11-20T07:31:40;94358.38;;;16.93;91.28
57801;BME280;43627;42.728;23.256;2022-11-20T07:34:08;94362.03;;;17.01;92.91
57801;BME280;43627;42.728;23.256;2022-11-20T07:36:34;94362.41;;;16.92;93.17
57801;BME280;43627;42.728;23.256;2022-11-20T07:39:01;94380.75;;;16.83;94.21
57801;BME280;43627;42.728;23.256;2022-11-20T07:41:28;94387.22;;;16.86;94.19
57801;BME280;43627;42.728;23.256;2022-11-20T07:43:55;94378.03;;;17.02;92.44
57801;BME280;43627;42.728;23.256;2022-11-20T07:46:22;94375.72;;;16.88;93.14
57801;BME280;43627;42.728;23.256;2022-11-20T07:48:48;94374.97;;;16.87;94.31
57801;BME280;43627;42.728;23.256;2022-11-20T07:51:15;94364.13;;;16.70;94.93
57801;BME280;43627;42.728;23.256;2022-11-20T07:53:42;94293.44;;;16.29;95.49
57801;BME280;43627;42.728;23.256;2022-11-20T07:56:09;94357.53;;;16.79;95.47
57801;BME280;43627;42.728;23.256;2022-11-20T07:58:35;94370.88;;;16.94;94.50
57801;BME280;43627;42.728;23.256;2022-11-20T08:01:04;94376.69;;;16.90;94.63
57801;BME280;43627;42.728;23.256;2022-11-20T08:03:31;94369.84;;;16.97;94.11
57801;BME280;43627;42.728;23.256;2022-11-20T08:05:59;94375.13;;;16.95;95.20
57801;BME280;43627;42.728;23.256;2022-11-20T08:08:29;94373.41;;;16.92;94.73
57801;BME280;43627;42.728;23.256;2022-11-20T08:10:59;94382.72;;;16.89;91.33
57801;BME280;43627;42.728;23.256;2022-11-20T08:13:45;94372.50;;;16.83;92.35
57801;BME280;43627;42.728;23.256;2022-11-20T08:16:30;94358.09;;;16.96;92.44
57801;BME280;43627;42.728;23.256;2022-11-20T08:18:56;94369.69;;;16.89;91.84
57801;BME280;43627;42.728;23.256;2022-11-20T08:21:23;94350.78;;;16.80;94.74
57801;BME280;43627;42.728;23.256;2022-11-20T08:23:50;94359.88;;;16.94;94.24
57801;BME280;43627;42.728;23.256;2022-11-20T08:26:17;94358.19;;;16.85;94.50
57801;BME280;43627;42.728;23.256;2022-11-20T08:28:44;94368.66;;;16.92;91.45
57801;BME280;43627;42.728;23.256;2022-11-20T08:31:11;94376.13;;;16.97;89.05
57801;BME280;43627;42.728;23.256;2022-11-20T08:33:38;94364.97;;;16.84;90.22
57801;BME280;43627;42.728;23.256;2022-11-20T08:36:05;94389.63;;;16.95;93.58
57801;BME280;43627;42.728;23.256;2022-11-20T08:38:32;94382.06;;;16.77;100.00
57801;BME280;43627;42.728;23.256;2022-11-20T08:41:00;94394.06;;;16.79;100.00
57801;BME280;43627;42.728;23.256;2022-11-20T08:43:46;94394.75;;;16.55;100.00
57801;BME280;43627;42.728;23.256;2022-11-20T08:46:13;94410.53;;;16.55;100.00
57801;BME280;43627;42.728;23.256;2022-11-20T08:48:40;94398.91;;;16.38;100.00
57801;BME280;43627;42.728;23.256;2022-11-20T08:51:07;94400.09;;;16.18;100.00
57801;BME280;43627;42.728;23.256;2022-11-20T08:53:34;94408.97;;;15.99;100.00
57801;BME280;43627;42.728;23.256;2022-11-20T08:56:01;94383.22;;;15.67;100.00
57801;BME280;43627;42.728;23.256;2022-11-20T08:58:27;94351.13;;;15.34;100.00
57801;BME280;43627;42.728;23.256;2022-11-20T09:00:56;94388.25;;;15.52;100.00
57801;BME280;43627;42.728;23.256;2022-11-20T09:03:23;94380.75;;;15.52;100.00
57801;BME280;43627;42.728;23.256;2022-11-20T09:05:59;94369.97;;;15.19;100.00
57801;BME280;43627;42.728;23.256;2022-11-20T09:08:27;94399.38;;;15.29;100.00
57801;BME280;43627;42.728;23.256;2022-11-20T09:10:55;94379.69;;;15.14;100.00
57801;BME280;43627;42.728;23.256;2022-11-20T09:13:23;94403.16;;;15.21;100.00
57801;BME280;43627;42.728;23.256;2022-11-20T09:16:21;94419.34;;;15.30;100.00
57801;BME280;43627;42.728;23.256;2022-11-20T09:18:51;94420.03;;;15.41;100.00
57801;BME280;43627;42.728;23.256;2022-11-20T09:22:01;94409.88;;;15.20;100.00
57801;BME280;43627;42.728;23.256;2022-11-20T09:24:27;94387.22;;;15.08;100.00
57801;BME280;43627;42.728;23.256;2022-11-20T09:27:04;94401.94;;;15.10;100.00
57801;BME280;43627;42.728;23.256;2022-11-20T09:29:31;94386.72;;;15.09;100.00
57801;BME280;43627;42.728;23.256;2022-11-20T09:31:58;94390.88;;;15.27;100.00
57801;BME280;43627;42.728;23.256;2022-11-20T09:34:24;94385.69;;;15.18;100.00
57801;BME280;43627;42.728;23.256;2022-11-20T09:36:51;94388.94;;;15.11;100.00
57801;BME280;43627;42.728;23.256;2022-11-20T09:39:18;94359.22;;;15.15;100.00
57801;BME280;43627;42.728;23.256;2022-11-20T09:45:05;94364.09;;;15.45;100.00
57801;BME280;43627;42.728;23.256;2022-11-20T09:50:37;94364.41;;;15.77;100.00
57801;BME280;43627;42.728;23.256;2022-11-20T09:53:13;94356.63;;;16.11;100.00
57801;BME280;43627;42.728;23.256;2022-11-20T09:55:45;94346.31;;;16.22;100.00
57801;BME280;43627;42.728;23.256;2022-11-20T09:58:24;94347.00;;;15.98;100.00
57801;BME280;43627;42.728;23.256;2022-11-20T10:00:53;94356.72;;;16.29;100.00
57801;BME280;43627;42.728;23.256;2022-11-20T10:06:13;94345.56;;;16.95;100.00
57801;BME280;43627;42.728;23.256;2022-11-20T10:08:47;94349.91;;;16.91;100.00
57801;BME280;43627;42.728;23.256;2022-11-20T10:11:46;94344.94;;;17.08;100.00
57801;BME280;43627;42.728;23.256;2022-11-20T10:14:38;94344.84;;;17.13;100.00
57801;BME280;43627;42.728;23.256;2022-11-20T10:20:17;94337.56;;;16.97;100.00
57801;BME280;43627;42.728;23.256;2022-11-20T10:25:44;94338.59;;;17.13;100.00
57801;BME280;43627;42.728;23.256;2022-11-20T10:28:34;94342.66;;;16.63;100.00
57801;BME280;43627;42.728;23.256;2022-11-20T10:31:12;94327.75;;;16.53;100.00
57801;BME280;43627;42.728;23.256;2022-11-20T10:33:43;94355.09;;;16.45;100.00
57801;BME280;43627;42.728;23.256;2022-11-20T10:36:40;94363.13;;;16.43;100.00
57801;BME280;43627;42.728;23.256;2022-11-20T10:39:18;94373.09;;;16.16;100.00
57801;BME280;43627;42.728;23.256;2022-11-20T10:41:52;94349.44;;;15.72;100.00
57801;BME280;43627;42.728;23.256;2022-11-20T10:44:22;94332.41;;;15.38;100.00
57801;BME280;43627;42.728;23.256;2022-11-20T10:47:16;94341.03;;;15.12;100.00
57801;BME280;43627;42.728;23.256;2022-11-20T10:49:48;94320.66;;;14.91;100.00
57801;BME280;43627;42.728;23.256;2022-11-20T10:55:25;94362.94;;;14.43;100.00
57801;BME280;43627;42.728;23.256;2022-11-20T11:00:24;94356.72;;;13.69;100.00
57801;BME280;43627;42.728;23.256;2022-11-20T11:02:53;94343.97;;;13.38;100.00
57801;BME280;43627;42.728;23.256;2022-11-20T11:05:32;94348.81;;;13.06;100.00
57801;BME280;43627;42.728;23.256;2022-11-20T11:07:59;94366.44;;;12.94;100.00
57801;BME280;43627;42.728;23.256;2022-11-20T11:13:26;94322.97;;;12.48;100.00
57801;BME280;43627;42.728;23.256;2022-11-20T11:15:54;94342.78;;;12.37;100.00
57801;BME280;43627;42.728;23.256;2022-11-20T11:18:32;94347.75;;;12.33;100.00
57801;BME280;43627;42.728;23.256;2022-11-20T11:21:02;94343.75;;;12.28;100.00
57801;BME280;43627;42.728;23.256;2022-11-20T11:25:58;94335.53;;;12.28;100.00
57801;BME280;43627;42.728;23.256;2022-11-20T11:28:28;94315.66;;;12.22;100.00
57801;BME280;43627;42.728;23.256;2022-11-20T11:30:56;94303.47;;;12.23;100.00
57801;BME280;43627;42.728;23.256;2022-11-20T11:33:28;94297.72;;;12.21;100.00
57801;BME280;43627;42.728;23.256;2022-11-20T11:35:55;94310.91;;;12.23;100.00
57801;BME280;43627;42.728;23.256;2022-11-20T11:38:38;94329.50;;;12.19;100.00
57801;BME280;43627;42.728;23.256;2022-11-20T11:41:06;94339.50;;;12.27;100.00
57801;BME280;43627;42.728;23.256;2022-11-20T11:43:36;94338.34;;;12.40;100.00
57801;BME280;43627;42.728;23.256;2022-11-20T11:54:17;94330.63;;;12.92;100.00
57801;BME280;43627;42.728;23.256;2022-11-20T11:56:46;94318.94;;;12.97;100.00
57801;BME280;43627;42.728;23.256;2022-11-20T11:59:22;94338.63;;;13.07;100.00
57801;BME280;43627;42.728;23.256;2022-11-20T12:01:59;94333.66;;;13.05;100.00
57801;BME280;43627;42.728;23.256;2022-11-20T12:04:50;94360.63;;;13.35;100.00
57801;BME280;43627;42.728;23.256;2022-11-20T12:07:41;94359.66;;;13.38;100.00
57801;BME280;43627;42.728;23.256;2022-11-20T12:10:45;94364.38;;;13.37;100.00
57801;BME280;43627;42.728;23.256;2022-11-20T12:13:15;94362.91;;;13.48;100.00
57801;BME280;43627;42.728;23.256;2022-11-20T12:15:44;94369.88;;;13.43;100.00
57801;BME280;43627;42.728;23.256;2022-11-20T12:18:21;94358.41;;;13.39;100.00
57801;BME280;43627;42.728;23.256;2022-11-20T12:24:23;94371.34;;;13.38;100.00
57801;BME280;43627;42.728;23.256;2022-11-20T12:38:13;94331.78;;;13.45;100.00
57801;BME280;43627;42.728;23.256;2022-11-20T12:57:15;94309.34;;;13.30;100.00
57801;BME280;43627;42.728;23.256;2022-11-20T13:00:03;94310.34;;;13.32;100.00
57801;BME280;43627;42.728;23.256;2022-11-20T13:02:55;94320.06;;;13.44;100.00
57801;BME280;43627;42.728;23.256;2022-11-20T13:08:30;94308.38;;;13.61;100.00
57801;BME280;43627;42.728;23.256;2022-11-20T13:14:03;94306.16;;;13.59;100.00
57801;BME280;43627;42.728;23.256;2022-11-20T13:16:33;94309.63;;;13.54;100.00
57801;BME280;43627;42.728;23.256;2022-11-20T13:19:03;94320.59;;;13.49;100.00
57801;BME280;43627;42.728;23.256;2022-11-20T13:24:21;94329.25;;;13.36;100.00
57801;BME280;43627;42.728;23.256;2022-11-20T13:27:25;94340.69;;;13.23;100.00
57801;BME280;43627;42.728;23.256;2022-11-20T13:30:13;94327.94;;;13.09;100.00
57801;BME280;43627;42.728;23.256;2022-11-20T13:33:00;94325.94;;;12.98;100.00
57801;BME280;43627;42.728;23.256;2022-11-20T13:35:35;94331.94;;;13.08;100.00
57801;BME280;43627;42.728;23.256;2022-11-20T13:38:11;94333.66;;;13.05;100.00
57801;BME280;43627;42.728;23.256;2022-11-20T13:40:58;94336.91;;;13.09;100.00
57801;BME280;43627;42.728;23.256;2022-11-20T13:43:38;94326.94;;;13.06;100.00
57801;BME280;43627;42.728;23.256;2022-11-20T13:46:07;94324.72;;;13.16;100.00
57801;BME280;43627;42.728;23.256;2022-11-20T13:48:45;94314.50;;;13.11;100.00
57801;BME280;43627;42.728;23.256;2022-11-20T13:51:41;94332.94;;;13.16;100.00
57801;BME280;43627;42.728;23.256;2022-11-20T14:02:02;94304.22;;;12.83;100.00
57801;BME280;43627;42.728;23.256;2022-11-20T14:04:33;94319.47;;;13.01;100.00
57801;BME280;43627;42.728;23.256;2022-11-20T14:07:00;94311.44;;;12.81;100.00
57801;BME280;43627;42.728;23.256;2022-11-20T14:09:29;94329.34;;;12.82;100.00
57801;BME280;43627;42.728;23.256;2022-11-20T14:11:57;94337.97;;;12.69;100.00
57801;BME280;43627;42.728;23.256;2022-11-20T14:14:28;94334.44;;;12.57;100.00
57801;BME280;43627;42.728;23.256;2022-11-20T14:17:18;94312.81;;;12.54;100.00
57801;BME280;43627;42.728;23.256;2022-11-20T14:19:47;94326.50;;;12.59;100.00
57801;BME280;43627;42.728;23.256;2022-11-20T14:24:48;94312.63;;;12.63;100.00
57801;BME280;43627;42.728;23.256;2022-11-20T14:27:20;94320.28;;;12.59;100.00
57801;BME280;43627;42.728;23.256;2022-11-20T14:29:49;94325.00;;;12.53;100.00
57801;BME280;43627;42.728;23.256;2022-11-20T14:32:18;94332.16;;;12.50;100.00
57801;BME280;43627;42.728;23.256;2022-11-20T14:34:48;94333.94;;;12.53;100.00